Time;durP1;ratioP1;P1;durP2;ratioP2;P2;SDS_P1;SDS_P2;PMS_P1;PMS_P2;Temp;Humidity;BMP_temperature;BMP_pressure;BME280_temperature;BME280_humidity;BME280_pressure;Samples;Min_cycle;Max_cycle;Signal;HPM_P1;HPM_P2
2024/02/08 00:01:53;;;;;;;;;;;;;;;;;;5025324;28;19924;-69
2024/02/08 00:04:18;;;;;;;;;;;;;;;;;;5028071;28;19964;-68
2024/02/08 00:06:43;;;;;;;;;;;;;;;;;;5013820;28;20446;-69
2024/02/08 00:09:11;;;;;;;;;;;;;;;;;;5025726;28;20232;-69
2024/02/08 00:11:36;;;;;;;;;;;;;;;;;;5024495;28;19921;-69
2024/02/08 00:17:21;;;;;;;;;;;;;;;;;;5025708;28;19970;-69
2024/02/08 00:19:48;;;;;;;;;;;;;;;;;;5037726;28;19960;-69
2024/02/08 00:22:20;;;;;;;;;;;;;;;;;;5037957;28;20019;-69
2024/02/08 00:25:04;;;;;;;;;;;;;;;;;;5025923;28;20583;-68
2024/02/08 00:27:29;;;;;;;;;;;;;;;;;;5025791;28;20367;-69
2024/02/08 00:29:54;;;;;;;;;;;;;;;;;;5025207;28;20014;-69
2024/02/08 00:32:19;;;;;;;;;;;;;;;;;;5021213;28;20570;-68
2024/02/08 00:34:48;;;;;;;;;;;;;;;;;;5056405;28;20134;-68
2024/02/08 00:37:13;;;;;;;;;;;;;;;;;;5043332;28;20319;-68
2024/02/08 00:39:44;;;;;;;;;;;;;;;;;;5058738;28;19916;-68
2024/02/08 00:42:11;;;;;;;;;;;;;;;;;;5038897;28;20368;-68
2024/02/08 00:44:36;;;;;;;;;;;;;;;;;;5026086;28;20364;-68
2024/02/08 00:50:31;;;;;;;;;;;;;;;;;;5022644;28;19985;-68
2024/02/08 00:52:58;;;;;;;;;;;;;;;;;;5023620;28;20479;-68
2024/02/08 00:55:26;;;;;;;;;;;;;;;;;;5025766;28;19921;-70
2024/02/08 00:57:54;;;;;;;;;;;;;;;;;;5056078;28;21043;-69
2024/02/08 01:00:22;;;;;;;;;;;;;;;;;;5023544;28;19924;-68
2024/02/08 01:02:52;;;;;;;;;;;;;;;;;;5055999;28;19921;-70
2024/02/08 01:05:20;;;;;;;;;;;;;;;;;;5025058;28;19921;-68
2024/02/08 01:07:48;;;;;;;;;;;;;;;;;;5056336;28;19964;-70
2024/02/08 01:10:14;;;;;;;;;;;;;;;;;;5024090;28;19927;-70
2024/02/08 01:12:39;;;;;;;;;;;;;;;;;;5039761;28;20309;-71
2024/02/08 01:15:06;;;;;;;;;;;;;;;;;;5024508;28;19921;-69
2024/02/08 01:17:34;;;;;;;;;;;;;;;;;;5055022;28;20319;-69
2024/02/08 01:20:06;;;;;;;;;;;;;;;;;;5022145;28;19920;-69
2024/02/08 01:22:31;;;;;;;;;;;;;;;;;;5055471;28;20544;-70
2024/02/08 01:24:59;;;;;;;;;;;;;;;;;;5029799;28;19913;-69
2024/02/08 01:27:30;;;;;;;;;;;;;;;;;;5060046;28;19921;-71
2024/02/08 01:30:07;;;;;;;;;;;;;;;;;;5060453;28;20043;-71
2024/02/08 01:32:35;;;;;;;;;;;;;;;;;;5053655;28;19917;-71
2024/02/08 01:35:03;;;;;;;;;;;;;;;;;;5059317;28;19978;-71
2024/02/08 01:37:38;;;;;;;;;;;;;;;;;;5059464;28;20371;-72
2024/02/08 01:40:06;;;;;;;;;;;;;;;;;;5059691;28;20006;-71
2024/02/08 01:42:37;;;;;;;;;;;;;;;;;;5059000;28;19967;-70
2024/02/08 01:45:07;;;;;;;;;;;;;;;;;;5062046;28;20341;-70
2024/02/08 01:47:32;;;;;;;;;;;;;;;;;;5057331;28;20615;-71
2024/02/08 01:50:02;;;;;;;;;;;;;;;;;;5059745;28;19924;-71
2024/02/08 01:52:28;;;;;;;;;;;;;;;;;;5027786;28;19921;-71
2024/02/08 01:54:56;;;;;;;;;;;;;;;;;;5045377;28;19921;-73
2024/02/08 01:57:24;;;;;;;;;;;;;;;;;;5042159;28;19917;-73
2024/02/08 01:59:52;;;;;;;;;;;;;;;;;;5060915;28;19963;-73
2024/02/08 02:02:21;;;;;;;;;;;;;;;;;;5028136;28;19921;-73
2024/02/08 02:04:47;;;;;;;;;;;;;;;;;;5029411;28;19928;-73
2024/02/08 02:07:12;;;;;;;;;;;;;;;;;;5023681;28;19917;-74
2024/02/08 02:09:39;;;;;;;;;;;;;;;;;;5060376;28;20019;-73
2024/02/08 02:12:08;;;;;;;;;;;;;;;;;;5026980;28;20376;-73
2024/02/08 02:14:38;;;;;;;;;;;;;;;;;;5060473;28;19920;-74
2024/02/08 02:17:03;;;;;;;;;;;;;;;;;;5028744;28;20391;-74
2024/02/08 02:19:31;;;;;;;;;;;;;;;;;;5026086;28;19921;-74
2024/02/08 02:21:56;;;;;;;;;;;;;;;;;;5059942;28;20401;-74
2024/02/08 02:27:42;;;;;;;;;;;;;;;;;;5027539;28;19928;-74
2024/02/08 02:30:07;;;;;;;;;;;;;;;;;;5043473;28;19925;-74
2024/02/08 02:32:37;;;;;;;;;;;;;;;;;;5052018;28;20335;-73
2024/02/08 02:35:05;;;;;;;;;;;;;;;;;;5025728;28;20256;-73
2024/02/08 02:37:33;;;;;;;;;;;;;;;;;;5057144;28;19925;-73
2024/02/08 02:39:58;;;;;;;;;;;;;;;;;;5026974;28;20012;-73
2024/02/08 02:42:25;;;;;;;;;;;;;;;;;;5025994;28;19921;-72
2024/02/08 02:44:51;;;;;;;;;;;;;;;;;;5027554;28;19923;-73
2024/02/08 02:47:25;;;;;;;;;;;;;;;;;;5059998;28;19940;-73
2024/02/08 02:49:55;;;;;;;;;;;;;;;;;;5052724;28;19925;-73
2024/02/08 02:52:20;;;;;;;;;;;;;;;;;;5027630;28;20276;-74
2024/02/08 02:54:45;;;;;;;;;;;;;;;;;;5027099;28;19928;-73
2024/02/08 03:00:40;;;;;;;;;;;;;;;;;;5026734;28;19954;-72
2024/02/08 03:03:11;;;;;;;;;;;;;;;;;;5059031;28;19917;-72
2024/02/08 03:05:37;;;;;;;;;;;;;;;;;;5055789;28;20496;-72
2024/02/08 03:08:05;;;;;;;;;;;;;;;;;;5055691;28;20027;-72
2024/02/08 03:10:33;;;;;;;;;;;;;;;;;;5025570;28;19943;-72
2024/02/08 03:12:59;;;;;;;;;;;;;;;;;;5057967;28;20028;-73
2024/02/08 03:15:24;;;;;;;;;;;;;;;;;;5027217;28;19921;-72
2024/02/08 03:17:52;;;;;;;;;;;;;;;;;;5028751;28;20023;-72
2024/02/08 03:20:23;;;;;;;;;;;;;;;;;;5025436;28;20505;-71
2024/02/08 03:22:48;;;;;;;;;;;;;;;;;;5054701;28;19927;-71
2024/02/08 03:25:17;;;;;;;;;;;;;;;;;;5056513;28;19923;-71
2024/02/08 03:27:42;;;;;;;;;;;;;;;;;;5025608;28;19913;-70
2024/02/08 03:30:19;;;;;;;;;;;;;;;;;;5057125;28;20004;-73
2024/02/08 03:32:44;;;;;;;;;;;;;;;;;;5038735;28;19932;-71
2024/02/08 03:35:09;;;;;;;;;;;;;;;;;;5028777;28;19975;-71
2024/02/08 03:37:34;;;;;;;;;;;;;;;;;;5023804;28;20027;-71
2024/02/08 03:40:00;;;;;;;;;;;;;;;;;;5055994;28;19925;-70
2024/02/08 03:42:30;;;;;;;;;;;;;;;;;;5026629;28;19916;-72
2024/02/08 03:44:55;;;;;;;;;;;;;;;;;;5027257;28;19928;-73
2024/02/08 03:47:23;;;;;;;;;;;;;;;;;;5026510;28;19917;-73
2024/02/08 03:49:53;;;;;;;;;;;;;;;;;;5055841;28;19920;-71
2024/02/08 03:52:19;;;;;;;;;;;;;;;;;;5026277;28;19956;-70
2024/02/08 03:54:45;;;;;;;;;;;;;;;;;;5058950;28;19999;-70
2024/02/08 03:57:11;;;;;;;;;;;;;;;;;;5054625;28;19921;-70
2024/02/08 03:59:40;;;;;;;;;;;;;;;;;;5058940;28;19936;-70
2024/02/08 04:02:09;;;;;;;;;;;;;;;;;;5051135;28;19927;-71
2024/02/08 04:04:53;;;;;;;;;;;;;;;;;;5027204;28;20051;-70
2024/02/08 04:07:20;;;;;;;;;;;;;;;;;;5055617;28;20366;-72
2024/02/08 04:09:55;;;;;;;;;;;;;;;;;;5059280;28;19976;-70
2024/02/08 04:54:36;;;;;;;;;;;;;;;;;;5027116;28;19921;-73
2024/02/08 04:57:01;;;;;;;;;;;;;;;;;;5055773;28;19971;-71
2024/02/08 04:59:26;;;;;;;;;;;;;;;;;;5059822;28;19929;-71
2024/02/08 05:01:53;;;;;;;;;;;;;;;;;;5028526;28;20204;-71
2024/02/08 05:04:26;;;;;;;;;;;;;;;;;;5061822;28;20013;-71
2024/02/08 05:06:57;;;;;;;;;;;;;;;;;;5024510;28;19980;-71
2024/02/08 05:09:22;;;;;;;;;;;;;;;;;;5028780;28;19921;-71
2024/02/08 05:11:53;;;;;;;;;;;;;;;;;;5027568;28;19956;-72
2024/02/08 05:14:22;;;;;;;;;;;;;;;;;;5059708;28;19920;-72
2024/02/08 05:16:54;;;;;;;;;;;;;;;;;;5028374;28;19994;-74
2024/02/08 05:19:27;;;;;;;;;;;;;;;;;;5027764;28;20804;-74
2024/02/08 05:21:54;;;;;;;;;;;;;;;;;;5060436;28;19917;-73
2024/02/08 05:24:19;;;;;;;;;;;;;;;;;;5062205;28;19921;-74
2024/02/08 05:26:44;;;;;;;;;;;;;;;;;;5058630;28;19928;-74
2024/02/08 05:29:12;;;;;;;;;;;;;;;;;;5061058;28;19967;-74
2024/02/08 05:31:41;;;;;;;;;;;;;;;;;;5058678;28;20011;-72
2024/02/08 05:34:10;;;;;;;;;;;;;;;;;;5026710;28;19961;-74
2024/02/08 05:36:39;;;;;;;;;;;;;;;;;;5057868;28;19921;-73
2024/02/08 05:39:07;;;;;;;;;;;;;;;;;;5058257;28;19924;-75
2024/02/08 05:41:35;;;;;;;;;;;;;;;;;;5058377;28;19928;-73
2024/02/08 05:44:05;;;;;;;;;;;;;;;;;;5058740;28;19932;-73
2024/02/08 05:46:39;;;;;;;;;;;;;;;;;;5028510;28;20535;-74
2024/02/08 05:49:04;;;;;;;;;;;;;;;;;;5060927;28;20035;-74
2024/02/08 05:51:47;;;;;;;;;;;;;;;;;;5028395;28;19921;-74
2024/02/08 05:54:16;;;;;;;;;;;;;;;;;;5045360;28;19972;-73
2024/02/08 05:56:43;;;;;;;;;;;;;;;;;;5028501;28;19931;-74
2024/02/08 05:59:15;;;;;;;;;;;;;;;;;;5059295;28;20025;-74
2024/02/08 06:01:47;;;;;;;;;;;;;;;;;;5044466;28;19974;-75
2024/02/08 06:04:12;;;;;;;;;;;;;;;;;;5043454;28;20287;-74
2024/02/08 06:06:38;;;;;;;;;;;;;;;;;;5062520;28;20379;-74
2024/02/08 06:09:09;;;;;;;;;;;;;;;;;;5028401;28;20491;-73
2024/02/08 06:11:37;;;;;;;;;;;;;;;;;;5043668;28;20003;-74
2024/02/08 06:14:12;;;;;;;;;;;;;;;;;;5060028;28;21484;-74
2024/02/08 06:16:47;;;;;;;;;;;;;;;;;;5028667;28;20526;-73
2024/02/08 06:19:14;;;;;;;;;;;;;;;;;;5061340;28;19927;-73
2024/02/08 06:21:40;;;;;;;;;;;;;;;;;;5027739;28;19924;-74
2024/02/08 06:27:33;;;;;;;;;;;;;;;;;;5026202;28;20024;-73
2024/02/08 06:30:00;;;;;;;;;;;;;;;;;;5058839;28;19917;-74
2024/02/08 06:35:06;;;;;;;;;;;;;;;;;;5028422;28;19916;-73
2024/02/08 06:37:32;;;;;;;;;;;;;;;;;;5059052;28;20375;-74
2024/02/08 06:40:00;;;;;;;;;;;;;;;;;;5042476;28;19939;-73
2024/02/08 06:48:14;;;;;;;;;;;;;;;;;;5028945;28;21507;-72
2024/02/08 07:37:18;;;;;;;;;;;;;;;;;;5027817;28;20501;-72
2024/02/08 07:40:00;;;;;;;;;;;;;;;;;;5028930;28;20372;-73
2024/02/08 07:42:51;;;;;;;;;;;;;;;;;;5028569;28;19934;-72
2024/02/08 07:45:26;;;;;;;;;;;;;;;;;;5028838;28;20434;-73
2024/02/08 07:47:58;;;;;;;;;;;;;;;;;;5060168;28;20017;-73
2024/02/08 07:50:35;;;;;;;;;;;;;;;;;;5059030;28;19929;-71
2024/02/08 07:53:08;;;;;;;;;;;;;;;;;;5060580;28;19916;-72
2024/02/08 07:57:59;;;;;;;;;;;;;;;;;;5029820;28;20438;-72
2024/02/08 08:03:08;;;;;;;;;;;;;;;;;;5027557;28;20189;-73
2024/02/08 08:05:33;;;;;;;;;;;;;;;;;;5059540;28;19927;-72
2024/02/08 08:18:58;;;;;;;;;;;;;;;;;;5027369;28;20335;-70
2024/02/08 08:21:26;;;;;;;;;;;;;;;;;;5037217;28;19917;-70
2024/02/08 08:23:59;;;;;;;;;;;;;;;;;;5027586;28;19967;-70
2024/02/08 08:26:25;;;;;;;;;;;;;;;;;;5027874;28;20412;-72
2024/02/08 08:28:53;;;;;;;;;;;;;;;;;;5058123;28;20071;-72
2024/02/08 08:31:51;;;;;;;;;;;;;;;;;;5058280;28;20276;-72
2024/02/08 08:36:58;;;;;;;;;;;;;;;;;;5028699;28;19925;-74
2024/02/08 08:39:46;;;;;;;;;;;;;;;;;;5031601;28;19931;-73
2024/02/08 08:42:16;;;;;;;;;;;;;;;;;;5029992;28;20040;-72
2024/02/08 08:44:48;;;;;;;;;;;;;;;;;;5063975;28;19924;-72
2024/02/08 08:47:14;;;;;;;;;;;;;;;;;;5030679;28;19917;-72
2024/02/08 08:49:39;;;;;;;;;;;;;;;;;;5029655;28;19931;-72
2024/02/08 08:52:06;;;;;;;;;;;;;;;;;;5029181;28;20090;-71
2024/02/08 08:54:36;;;;;;;;;;;;;;;;;;5061989;28;19917;-72
2024/02/08 08:57:06;;;;;;;;;;;;;;;;;;5029845;28;20277;-71
2024/02/08 08:59:32;;;;;;;;;;;;;;;;;;5061615;28;20153;-71
2024/02/08 09:02:00;;;;;;;;;;;;;;;;;;5029881;28;20563;-72
2024/02/08 09:04:25;;;;;;;;;;;;;;;;;;5031538;28;19923;-70
2024/02/08 09:06:50;;;;;;;;;;;;;;;;;;5030401;28;19917;-72
2024/02/08 09:09:28;;;;;;;;;;;;;;;;;;5045587;28;19917;-71
2024/02/08 09:11:59;;;;;;;;;;;;;;;;;;5061183;28;20171;-71
2024/02/08 09:14:33;;;;;;;;;;;;;;;;;;5032054;28;19920;-71
2024/02/08 09:17:04;;;;;;;;;;;;;;;;;;5029379;28;20379;-70
2024/02/08 09:19:32;;;;;;;;;;;;;;;;;;5030295;28;19920;-70
2024/02/08 09:22:02;;;;;;;;;;;;;;;;;;5030234;28;20586;-70
2024/02/08 09:24:28;;;;;;;;;;;;;;;;;;5031057;28;19920;-71
2024/02/08 09:27:00;;;;;;;;;;;;;;;;;;5030291;28;19928;-71
2024/02/08 09:29:38;;;;;;;;;;;;;;;;;;5060996;28;19924;-72
2024/02/08 09:32:14;;;;;;;;;;;;;;;;;;5059651;28;19917;-72
2024/02/08 09:34:47;;;;;;;;;;;;;;;;;;5030812;28;19932;-73
2024/02/08 09:37:16;;;;;;;;;;;;;;;;;;5030639;28;19924;-72
2024/02/08 09:39:53;;;;;;;;;;;;;;;;;;5062457;28;20092;-73
2024/02/08 09:42:19;;;;;;;;;;;;;;;;;;5060103;28;19924;-73
2024/02/08 09:44:49;;;;;;;;;;;;;;;;;;5062405;28;19948;-72
2024/02/08 09:47:25;;;;;;;;;;;;;;;;;;5031504;28;19920;-71
2024/02/08 09:49:53;;;;;;;;;;;;;;;;;;5063061;28;19929;-71
2024/02/08 09:52:30;;;;;;;;;;;;;;;;;;5028251;28;19925;-73
2024/02/08 09:55:06;;;;;;;;;;;;;;;;;;5063475;28;19948;-70
2024/02/08 09:57:45;;;;;;;;;;;;;;;;;;5058863;28;19917;-70
2024/02/08 10:00:34;;;;;;;;;;;;;;;;;;5062327;28;19963;-69
2024/02/08 10:03:03;;;;;;;;;;;;;;;;;;5030468;28;20395;-69
2024/02/08 10:08:27;;;;;;;;;;;;;;;;;;5029338;28;19928;-68
2024/02/08 10:19:23;;;;;;;;;;;;;;;;;;5061770;28;19936;-69
2024/02/08 10:21:54;;;;;;;;;;;;;;;;;;5059792;28;19921;-68
2024/02/08 10:24:27;;;;;;;;;;;;;;;;;;5030998;28;20576;-68
2024/02/08 10:26:58;;;;;;;;;;;;;;;;;;5029169;28;19917;-68
2024/02/08 10:29:25;;;;;;;;;;;;;;;;;;5030125;28;20580;-69
2024/02/08 10:31:52;;;;;;;;;;;;;;;;;;5059559;28;19940;-69
2024/02/08 10:34:32;;;;;;;;;;;;;;;;;;5029110;28;19967;-68
2024/02/08 10:36:59;;;;;;;;;;;;;;;;;;5061132;28;19917;-68
2024/02/08 10:39:24;;;;;;;;;;;;;;;;;;5031458;28;19921;-68
2024/02/08 10:41:58;;;;;;;;;;;;;;;;;;5028395;28;19971;-68
2024/02/08 10:44:24;;;;;;;;;;;;;;;;;;5029116;28;19931;-68
2024/02/08 10:46:55;;;;;;;;;;;;;;;;;;5043678;28;19924;-68
2024/02/08 10:49:23;;;;;;;;;;;;;;;;;;5062705;28;19921;-68
2024/02/08 10:51:48;;;;;;;;;;;;;;;;;;5059931;28;21548;-68
2024/02/08 10:54:22;;;;;;;;;;;;;;;;;;5060027;28;19928;-68
2024/02/08 10:57:06;;;;;;;;;;;;;;;;;;5057516;28;20380;-68
2024/02/08 10:59:48;;;;;;;;;;;;;;;;;;5029694;28;19968;-67
2024/02/08 11:02:31;;;;;;;;;;;;;;;;;;5059639;28;20078;-67
2024/02/08 11:05:12;;;;;;;;;;;;;;;;;;5059253;28;20016;-67
2024/02/08 11:07:45;;;;;;;;;;;;;;;;;;5028492;28;19967;-67
2024/02/08 11:10:10;;;;;;;;;;;;;;;;;;5028522;28;19924;-67
2024/02/08 11:12:39;;;;;;;;;;;;;;;;;;5052353;28;19916;-67
2024/02/08 11:15:13;;;;;;;;;;;;;;;;;;5040310;28;19921;-68
2024/02/08 11:17:43;;;;;;;;;;;;;;;;;;5056511;28;20043;-65
2024/02/08 11:20:16;;;;;;;;;;;;;;;;;;5042227;28;20015;-68
2024/02/08 11:22:42;;;;;;;;;;;;;;;;;;5027816;28;19913;-68
2024/02/08 11:25:20;;;;;;;;;;;;;;;;;;5024534;28;19920;-67
2024/02/08 11:27:47;;;;;;;;;;;;;;;;;;5056183;28;19917;-68
2024/02/08 11:30:13;;;;;;;;;;;;;;;;;;5058152;28;19921;-68
2024/02/08 11:32:39;;;;;;;;;;;;;;;;;;5057561;28;19927;-68
2024/02/08 11:35:12;;;;;;;;;;;;;;;;;;5025213;28;19921;-68
2024/02/08 11:37:40;;;;;;;;;;;;;;;;;;5027926;28;19921;-68
2024/02/08 11:40:19;;;;;;;;;;;;;;;;;;5025702;28;19956;-68
2024/02/08 11:42:44;;;;;;;;;;;;;;;;;;5026338;28;19924;-68
2024/02/08 11:45:12;;;;;;;;;;;;;;;;;;5039510;28;19916;-68
2024/02/08 11:47:43;;;;;;;;;;;;;;;;;;5057638;28;20383;-69
2024/02/08 11:50:11;;;;;;;;;;;;;;;;;;5025693;28;19932;-68
2024/02/08 11:52:38;;;;;;;;;;;;;;;;;;5056852;28;20066;-69
2024/02/08 11:55:09;;;;;;;;;;;;;;;;;;5056439;28;20408;-68
2024/02/08 11:57:37;;;;;;;;;;;;;;;;;;5018097;28;19917;-68
2024/02/08 12:00:15;;;;;;;;;;;;;;;;;;5039519;28;19963;-68
2024/02/08 12:02:47;;;;;;;;;;;;;;;;;;5022400;28;19917;-69
2024/02/08 12:05:19;;;;;;;;;;;;;;;;;;5026807;28;19916;-69
2024/02/08 12:07:48;;;;;;;;;;;;;;;;;;5055725;28;19925;-69
2024/02/08 12:10:17;;;;;;;;;;;;;;;;;;5057223;28;19917;-68
2024/02/08 12:12:43;;;;;;;;;;;;;;;;;;5024798;28;19920;-69
2024/02/08 12:15:11;;;;;;;;;;;;;;;;;;5026847;28;20412;-69
2024/02/08 12:17:48;;;;;;;;;;;;;;;;;;5025325;28;19931;-69
2024/02/08 12:20:16;;;;;;;;;;;;;;;;;;5027620;28;19916;-70
2024/02/08 12:22:45;;;;;;;;;;;;;;;;;;5058291;28;19927;-69
2024/02/08 12:25:22;;;;;;;;;;;;;;;;;;5055615;28;19921;-69
2024/02/08 12:28:02;;;;;;;;;;;;;;;;;;5027111;28;19921;-69
2024/02/08 12:30:28;;;;;;;;;;;;;;;;;;5058666;28;20498;-69
2024/02/08 12:36:10;;;;;;;;;;;;;;;;;;5021937;28;20442;-69
2024/02/08 12:38:36;;;;;;;;;;;;;;;;;;5026293;28;20450;-69
2024/02/08 12:41:06;;;;;;;;;;;;;;;;;;5058632;28;20001;-70
2024/02/08 12:43:34;;;;;;;;;;;;;;;;;;5027807;28;19932;-69
2024/02/08 12:46:08;;;;;;;;;;;;;;;;;;5058622;28;19917;-69
2024/02/08 12:48:36;;;;;;;;;;;;;;;;;;5044185;28;19921;-68
2024/02/08 12:51:04;;;;;;;;;;;;;;;;;;5058085;28;19925;-68
2024/02/08 12:56:48;;;;;;;;;;;;;;;;;;5023528;28;19963;-69
2024/02/08 12:59:13;;;;;;;;;;;;;;;;;;5058799;28;20007;-67
2024/02/08 13:04:55;;;;;;;;;;;;;;;;;;5024938;28;20458;-68
2024/02/08 13:07:25;;;;;;;;;;;;;;;;;;5021581;28;19996;-67
2024/02/08 13:09:50;;;;;;;;;;;;;;;;;;5027068;28;19913;-68
2024/02/08 13:12:17;;;;;;;;;;;;;;;;;;5059762;28;21595;-68
2024/02/08 13:14:48;;;;;;;;;;;;;;;;;;5058980;28;19952;-68
2024/02/08 13:20:31;;;;;;;;;;;;;;;;;;5031054;28;19927;-70
2024/02/08 13:22:59;;;;;;;;;;;;;;;;;;5042837;28;19948;-68
2024/02/08 13:25:28;;;;;;;;;;;;;;;;;;5060151;28;20314;-69
2024/02/08 13:28:02;;;;;;;;;;;;;;;;;;5028297;28;20577;-67
2024/02/08 13:30:29;;;;;;;;;;;;;;;;;;5031990;28;19921;-68
2024/02/08 13:32:57;;;;;;;;;;;;;;;;;;5030679;28;20429;-68
2024/02/08 13:38:42;;;;;;;;;;;;;;;;;;5030912;28;19978;-70
2024/02/08 13:41:09;;;;;;;;;;;;;;;;;;5047153;28;19924;-69
2024/02/08 13:43:45;;;;;;;;;;;;;;;;;;5029537;28;19917;-69
2024/02/08 13:46:17;;;;;;;;;;;;;;;;;;5063621;28;20165;-69
2024/02/08 13:48:49;;;;;;;;;;;;;;;;;;5061903;28;20011;-67
2024/02/08 13:51:16;;;;;;;;;;;;;;;;;;5045807;28;20015;-69
2024/02/08 13:53:41;;;;;;;;;;;;;;;;;;5031464;28;20366;-68
2024/02/08 13:56:11;;;;;;;;;;;;;;;;;;5061956;28;20065;-69
2024/02/08 13:58:36;;;;;;;;;;;;;;;;;;5063077;28;19936;-68
2024/02/08 14:01:04;;;;;;;;;;;;;;;;;;5063539;28;20289;-67
2024/02/08 14:03:29;;;;;;;;;;;;;;;;;;5063070;28;19917;-69
2024/02/08 14:05:55;;;;;;;;;;;;;;;;;;5061681;28;20436;-69
2024/02/08 14:08:27;;;;;;;;;;;;;;;;;;5029600;28;21790;-68
2024/02/08 14:10:55;;;;;;;;;;;;;;;;;;5030868;28;19921;-70
2024/02/08 14:16:13;;;;;;;;;;;;;;;;;;5062279;28;19920;-69
2024/02/08 14:18:39;;;;;;;;;;;;;;;;;;5029019;28;19925;-70
2024/02/08 14:21:09;;;;;;;;;;;;;;;;;;5061968;28;19916;-69
2024/02/08 14:23:38;;;;;;;;;;;;;;;;;;5060009;28;20368;-69
2024/02/08 14:29:21;;;;;;;;;;;;;;;;;;5028471;28;20131;-70
2024/02/08 14:31:47;;;;;;;;;;;;;;;;;;5059318;28;19921;-70
2024/02/08 14:34:14;;;;;;;;;;;;;;;;;;5062002;28;19917;-70
2024/02/08 14:36:42;;;;;;;;;;;;;;;;;;5027836;28;21504;-70
2024/02/08 14:39:26;;;;;;;;;;;;;;;;;;5029089;28;19921;-70
2024/02/08 14:45:12;;;;;;;;;;;;;;;;;;5030462;28;19978;-70
2024/02/08 14:47:39;;;;;;;;;;;;;;;;;;5060598;28;20363;-70
2024/02/08 14:50:48;;;;;;;;;;;;;;;;;;5029874;28;20058;-70
2024/02/08 14:52:51;;;;;;;;;;;;;;;;;;5029383;28;19951;-71
2024/02/08 14:55:20;;;;;;;;;;;;;;;;;;5059507;28;21651;-71
2024/02/08 14:57:45;;;;;;;;;;;;;;;;;;5028556;28;19928;-71
2024/02/08 15:03:02;;;;;;;;;;;;;;;;;;5027117;28;19916;-70
2024/02/08 15:05:46;;;;;;;;;;;;;;;;;;5030710;28;19917;-70
2024/02/08 15:11:25;;;;;;;;;;;;;;;;;;5061515;28;19962;-70
2024/02/08 15:13:54;;;;;;;;;;;;;;;;;;5028554;28;19921;-71
2024/02/08 15:16:21;;;;;;;;;;;;;;;;;;5028704;28;19924;-72
2024/02/08 15:18:47;;;;;;;;;;;;;;;;;;5028297;28;19924;-73
2024/02/08 15:21:12;;;;;;;;;;;;;;;;;;5060841;28;19932;-73
2024/02/08 15:24:18;;;;;;;;;;;;;;;;;;5059639;28;19922;-74
2024/02/08 15:26:38;;;;;;;;;;;;;;;;;;5029064;28;19940;-75
2024/02/08 15:29:04;;;;;;;;;;;;;;;;;;5027333;28;19969;-75
2024/02/08 15:36:47;;;;;;;;;;;;;;;;;;5028998;28;19916;-75
2024/02/08 15:39:26;;;;;;;;;;;;;;;;;;5028507;28;19925;-75
2024/02/08 15:41:55;;;;;;;;;;;;;;;;;;5029069;28;19924;-75
2024/02/08 15:44:36;;;;;;;;;;;;;;;;;;5045356;28;19916;-73
2024/02/08 15:47:11;;;;;;;;;;;;;;;;;;5026712;28;20430;-75
2024/02/08 15:52:56;;;;;;;;;;;;;;;;;;5026804;28;20502;-75
2024/02/08 15:55:25;;;;;;;;;;;;;;;;;;5027248;28;19964;-74
2024/02/08 15:58:04;;;;;;;;;;;;;;;;;;5057930;28;19928;-74
2024/02/08 16:03:17;;;;;;;;;;;;;;;;;;5027503;28;20390;-74
2024/02/08 16:05:44;;;;;;;;;;;;;;;;;;5028549;28;20004;-73
2024/02/08 16:08:13;;;;;;;;;;;;;;;;;;5027690;28;19923;-74
2024/02/08 16:10:39;;;;;;;;;;;;;;;;;;5025747;28;19990;-77
2024/02/08 16:13:04;;;;;;;;;;;;;;;;;;5026447;28;19929;-74
2024/02/08 16:15:49;;;;;;;;;;;;;;;;;;5059962;28;19974;-74
2024/02/08 16:18:22;;;;;;;;;;;;;;;;;;5027910;28;19944;-72
2024/02/08 16:20:54;;;;;;;;;;;;;;;;;;5059134;28;19923;-74
2024/02/08 16:23:20;;;;;;;;;;;;;;;;;;5026272;28;19916;-74
2024/02/08 16:25:47;;;;;;;;;;;;;;;;;;5060011;28;19925;-75
2024/02/08 16:28:29;;;;;;;;;;;;;;;;;;5029369;28;19974;-74
2024/02/08 16:33:32;;;;;;;;;;;;;;;;;;5026798;28;19935;-74
2024/02/08 16:35:58;;;;;;;;;;;;;;;;;;5060003;28;20011;-74
2024/02/08 16:38:27;;;;;;;;;;;;;;;;;;5026996;28;19920;-74
2024/02/08 16:40:52;;;;;;;;;;;;;;;;;;5028500;28;20004;-75
2024/02/08 16:43:28;;;;;;;;;;;;;;;;;;5026369;28;19921;-75
2024/02/08 16:45:58;;;;;;;;;;;;;;;;;;5030193;28;20430;-73
2024/02/08 16:48:24;;;;;;;;;;;;;;;;;;5057755;28;20169;-74
2024/02/08 16:50:49;;;;;;;;;;;;;;;;;;5059706;28;19921;-75
2024/02/08 16:53:18;;;;;;;;;;;;;;;;;;5040405;28;19925;-76
2024/02/08 16:55:47;;;;;;;;;;;;;;;;;;5030050;28;20022;-73
2024/02/08 16:58:19;;;;;;;;;;;;;;;;;;5030471;28;20141;-74
2024/02/08 17:00:48;;;;;;;;;;;;;;;;;;5030950;28;20565;-74
2024/02/08 17:06:11;;;;;;;;;;;;;;;;;;5032360;28;19948;-74
2024/02/08 17:08:50;;;;;;;;;;;;;;;;;;5046030;28;19932;-74
2024/02/08 17:11:15;;;;;;;;;;;;;;;;;;5032393;28;19970;-75
2024/02/08 17:13:50;;;;;;;;;;;;;;;;;;5029833;28;20012;-74
2024/02/08 17:16:25;;;;;;;;;;;;;;;;;;5029662;28;20028;-74
2024/02/08 17:19:10;;;;;;;;;;;;;;;;;;5032048;28;19921;-75
2024/02/08 17:21:55;;;;;;;;;;;;;;;;;;5031653;28;20450;-76
2024/02/08 17:24:42;;;;;;;;;;;;;;;;;;5061511;28;20498;-74
2024/02/08 17:27:37;;;;;;;;;;;;;;;;;;5028681;28;20027;-74
2024/02/08 17:30:07;;;;;;;;;;;;;;;;;;5024612;28;20434;-73
2024/02/08 17:32:33;;;;;;;;;;;;;;;;;;5030426;28;19913;-73
2024/02/08 17:34:58;;;;;;;;;;;;;;;;;;5064538;28;21328;-71
2024/02/08 17:37:30;;;;;;;;;;;;;;;;;;5030759;28;19999;-74
2024/02/08 17:39:56;;;;;;;;;;;;;;;;;;5062330;28;19975;-73
2024/02/08 17:42:24;;;;;;;;;;;;;;;;;;5028931;28;19921;-72
2024/02/08 17:44:54;;;;;;;;;;;;;;;;;;5064392;28;20292;-74
2024/02/08 17:47:20;;;;;;;;;;;;;;;;;;5031703;28;20372;-74
2024/02/08 17:49:46;;;;;;;;;;;;;;;;;;5030515;28;19921;-72
2024/02/08 17:52:14;;;;;;;;;;;;;;;;;;5061247;28;20521;-70
2024/02/08 17:54:46;;;;;;;;;;;;;;;;;;5030333;28;19921;-72
2024/02/08 17:57:22;;;;;;;;;;;;;;;;;;5029997;28;20675;-71
2024/02/08 17:59:50;;;;;;;;;;;;;;;;;;5032177;28;19932;-70
2024/02/08 18:02:21;;;;;;;;;;;;;;;;;;5062495;28;20328;-74
2024/02/08 18:04:47;;;;;;;;;;;;;;;;;;5030161;28;19996;-73
2024/02/08 18:07:12;;;;;;;;;;;;;;;;;;5063093;28;19936;-72
2024/02/08 18:09:39;;;;;;;;;;;;;;;;;;5030894;28;19927;-71
2024/02/08 18:12:13;;;;;;;;;;;;;;;;;;5028496;28;20266;-71
2024/02/08 18:14:40;;;;;;;;;;;;;;;;;;5045808;28;19941;-71
2024/02/08 18:17:05;;;;;;;;;;;;;;;;;;5029531;28;19913;-70
2024/02/08 18:19:36;;;;;;;;;;;;;;;;;;5029405;28;20015;-73
2024/02/08 18:22:04;;;;;;;;;;;;;;;;;;5032050;28;19917;-73
2024/02/08 18:24:34;;;;;;;;;;;;;;;;;;5030143;28;20745;-71
2024/02/08 18:27:07;;;;;;;;;;;;;;;;;;5061216;28;20366;-74
2024/02/08 18:29:35;;;;;;;;;;;;;;;;;;5029624;28;20080;-72
2024/02/08 18:32:01;;;;;;;;;;;;;;;;;;5030973;28;19956;-72
2024/02/08 18:34:27;;;;;;;;;;;;;;;;;;5061321;28;19971;-71
2024/02/08 18:36:57;;;;;;;;;;;;;;;;;;5030584;28;19923;-72
2024/02/08 18:39:26;;;;;;;;;;;;;;;;;;5059611;28;19921;-72
2024/02/08 18:41:51;;;;;;;;;;;;;;;;;;5026344;28;20373;-72
2024/02/08 18:44:18;;;;;;;;;;;;;;;;;;5061889;28;20015;-71
2024/02/08 18:46:44;;;;;;;;;;;;;;;;;;5038822;28;19936;-75
2024/02/08 18:49:09;;;;;;;;;;;;;;;;;;5033120;28;20274;-71
2024/02/08 18:51:35;;;;;;;;;;;;;;;;;;5060532;28;20020;-73
2024/02/08 18:54:00;;;;;;;;;;;;;;;;;;5060757;28;20368;-74
2024/02/08 18:56:26;;;;;;;;;;;;;;;;;;5028692;28;20376;-73
2024/02/08 18:58:54;;;;;;;;;;;;;;;;;;5030815;28;19925;-72
2024/02/08 19:01:20;;;;;;;;;;;;;;;;;;5031388;28;19931;-75
2024/02/08 19:03:46;;;;;;;;;;;;;;;;;;5028608;28;19917;-74
2024/02/08 19:06:14;;;;;;;;;;;;;;;;;;5029909;28;20310;-73
2024/02/08 19:08:41;;;;;;;;;;;;;;;;;;5028027;28;19913;-73
2024/02/08 19:11:07;;;;;;;;;;;;;;;;;;5061421;28;19920;-71
2024/02/08 19:13:35;;;;;;;;;;;;;;;;;;5061147;28;19924;-72
2024/02/08 19:16:00;;;;;;;;;;;;;;;;;;5030876;28;21575;-71
2024/02/08 19:21:42;;;;;;;;;;;;;;;;;;5028786;28;19991;-74
2024/02/08 19:24:15;;;;;;;;;;;;;;;;;;5028902;28;19940;-72
2024/02/08 19:26:42;;;;;;;;;;;;;;;;;;5061554;28;20043;-72
2024/02/08 19:29:07;;;;;;;;;;;;;;;;;;5028438;28;22073;-73
2024/02/08 19:31:36;;;;;;;;;;;;;;;;;;5038277;28;19982;-73
2024/02/08 19:34:07;;;;;;;;;;;;;;;;;;5028046;28;20533;-75
2024/02/08 19:36:33;;;;;;;;;;;;;;;;;;5059344;28;20284;-77
2024/02/08 19:39:22;;;;;;;;;;;;;;;;;;5028292;28;19925;-72
2024/02/08 19:41:44;;;;;;;;;;;;;;;;;;5027541;28;19940;-73
2024/02/08 19:44:16;;;;;;;;;;;;;;;;;;5028363;28;19956;-74
2024/02/08 19:46:43;;;;;;;;;;;;;;;;;;5028390;28;19931;-72
2024/02/08 19:49:09;;;;;;;;;;;;;;;;;;5029160;28;19928;-74
2024/02/08 19:51:36;;;;;;;;;;;;;;;;;;5060591;28;20023;-73
2024/02/08 19:54:08;;;;;;;;;;;;;;;;;;5043808;28;19935;-72
2024/02/08 19:56:33;;;;;;;;;;;;;;;;;;5027432;28;19917;-72
2024/02/08 19:59:05;;;;;;;;;;;;;;;;;;5059632;28;19987;-73
2024/02/08 20:01:35;;;;;;;;;;;;;;;;;;5029261;28;20401;-72
2024/02/08 20:04:03;;;;;;;;;;;;;;;;;;5029461;28;19925;-73
2024/02/08 20:06:31;;;;;;;;;;;;;;;;;;5027214;28;19974;-71
2024/02/08 20:08:57;;;;;;;;;;;;;;;;;;5058106;28;20307;-70
2024/02/08 20:11:25;;;;;;;;;;;;;;;;;;5027634;28;20055;-71
2024/02/08 20:13:50;;;;;;;;;;;;;;;;;;5060331;28;20364;-73
2024/02/08 20:16:17;;;;;;;;;;;;;;;;;;5028030;28;19917;-71
2024/02/08 20:18:45;;;;;;;;;;;;;;;;;;5027685;28;19931;-71